Time;durP1;ratioP1;P1;durP2;ratioP2;P2;SDS_P1;SDS_P2;PMS_P1;PMS_P2;Temp;Humidity;BMP_temperature;BMP_pressure;BME280_temperature;BME280_humidity;BME280_pressure;Samples;Min_cycle;Max_cycle;Signal;HPM_P1;HPM_P2
2021/08/27 01:06:37;;;;;;;9.30;2.90;;;;;;;;;;2630003;38;21940;31
2021/08/27 01:09:35;;;;;;;7.80;3.60;;;;;;;;;;2649016;30;20442;31
2021/08/27 01:14:41;;;;;;;9.63;3.43;;;;;;;;;;2643580;30;21272;31
2021/08/27 01:17:16;;;;;;;10.57;4.90;;;;;;;;;;2646258;30;20426;31
2021/08/27 01:19:49;;;;;;;8.40;3.83;;;;;;;;;;2650673;38;22167;31
2021/08/27 01:22:41;;;;;;;14.30;3.20;;;;;;;;;;2640145;30;20949;31
2021/08/27 01:33:01;;;;;;;8.13;5.00;;;;;;;;;;2690199;30;20409;31
2021/08/27 01:35:37;;;;;;;5.30;3.13;;;;;;;;;;2640483;30;21778;31
2021/08/27 01:40:43;;;;;;;10.10;3.80;;;;;;;;;;2643654;30;20949;31
2021/08/27 01:43:17;;;;;;;6.73;3.10;;;;;;;;;;2683492;30;20959;31
2021/08/27 01:53:33;;;;;;;6.73;3.23;;;;;;;;;;2642203;38;20891;31
2021/08/27 01:56:08;;;;;;;6.10;3.35;;;;;;;;;;2654901;38;20963;31
2021/08/27 01:58:42;;;;;;;12.47;3.73;;;;;;;;;;2641926;38;20437;31
2021/08/27 02:01:15;;;;;;;10.00;3.60;;;;;;;;;;2646873;38;20882;31
2021/08/27 02:03:50;;;;;;;5.67;3.60;;;;;;;;;;2641160;30;20476;31
2021/08/27 02:06:24;;;;;;;10.50;3.10;;;;;;;;;;2652781;30;20664;31
2021/08/27 02:19:19;;;;;;;10.17;3.77;;;;;;;;;;2627792;31;20750;31
2021/08/27 02:21:55;;;;;;;10.90;3.20;;;;;;;;;;2700069;30;20421;31
2021/08/27 02:32:09;;;;;;;6.73;3.50;;;;;;;;;;2620925;38;22202;31
2021/08/27 02:34:45;;;;;;;15.27;3.67;;;;;;;;;;2642872;38;20395;31
2021/08/27 02:37:19;;;;;;;6.00;3.45;;;;;;;;;;2706592;30;20795;31
2021/08/27 02:39:53;;;;;;;5.50;3.63;;;;;;;;;;2667469;30;22322;31
2021/08/27 02:50:09;;;;;;;7.40;3.20;;;;;;;;;;2620853;30;20475;31
2021/08/27 02:52:47;;;;;;;12.00;4.00;;;;;;;;;;2651491;30;20452;31
2021/08/27 02:57:54;;;;;;;5.35;3.15;;;;;;;;;;2627623;30;20434;31
2021/08/27 03:00:29;;;;;;;10.10;3.97;;;;;;;;;;2630015;31;22168;31
2021/08/27 03:05:39;;;;;;;7.37;3.23;;;;;;;;;;2653994;30;20428;31
2021/08/27 03:16:00;;;;;;;12.63;4.17;;;;;;;;;;2618957;30;20898;31
2021/08/27 03:18:47;;;;;;;11.30;3.73;;;;;;;;;;2686252;30;21989;31
2021/08/27 03:34:10;;;;;;;6.10;4.10;;;;;;;;;;2639391;30;21006;31
2021/08/27 03:36:47;;;;;;;8.27;4.47;;;;;;;;;;2705600;30;20421;31
2021/08/27 03:41:53;;;;;;;8.57;4.50;;;;;;;;;;2641704;38;22340;31
2021/08/27 03:44:27;;;;;;;10.07;4.77;;;;;;;;;;2637960;30;21035;31
2021/08/27 03:47:01;;;;;;;5.90;3.90;;;;;;;;;;2681212;30;20437;31
2021/08/27 03:59:49;;;;;;;7.20;3.50;;;;;;;;;;2626139;30;21488;31
2021/08/27 04:02:21;;;;;;;13.60;3.97;;;;;;;;;;2665471;30;20500;31
2021/08/27 04:05:08;;;;;;;10.43;3.53;;;;;;;;;;2712531;30;20413;31
2021/08/27 04:10:17;;;;;;;9.90;3.77;;;;;;;;;;2642895;30;20428;31
2021/08/27 04:12:49;;;;;;;6.50;3.73;;;;;;;;;;2627898;30;20989;31
2021/08/27 04:17:56;;;;;;;14.53;4.30;;;;;;;;;;2644875;38;21580;31
2021/08/27 04:23:02;;;;;;;12.15;4.45;;;;;;;;;;2666588;30;22316;31
2021/08/27 04:25:35;;;;;;;10.77;3.40;;;;;;;;;;2645278;30;21198;31
2021/08/27 04:30:45;;;;;;;8.30;3.30;;;;;;;;;;2620906;30;20449;31
2021/08/27 04:33:18;;;;;;;9.30;4.10;;;;;;;;;;2659330;30;20369;31
2021/08/27 04:46:10;;;;;;;6.03;3.40;;;;;;;;;;2636157;38;20402;31
2021/08/27 04:48:46;;;;;;;7.33;4.20;;;;;;;;;;2662977;30;20776;31
2021/08/27 05:24:48;;;;;;;3.40;2.60;;;;;;;;;;2704892;38;20383;-84
2021/08/27 05:27:14;;;;;;;4.83;3.13;;;;;;;;;;2699980;30;20355;-84
2021/08/27 05:29:42;;;;;;;4.63;3.53;;;;;;;;;;2693688;30;20358;-85
2021/08/27 05:32:10;;;;;;;6.63;2.90;;;;;;;;;;2663836;38;20338;-85
2021/08/27 05:34:36;;;;;;;6.30;3.77;;;;;;;;;;2673112;30;20347;-84
2021/08/27 05:37:02;;;;;;;5.80;2.87;;;;;;;;;;2662543;30;21321;-84
2021/08/27 05:39:29;;;;;;;10.33;3.27;;;;;;;;;;2681587;30;20402;-84
2021/08/27 05:41:56;;;;;;;4.53;3.20;;;;;;;;;;2674218;30;20338;-84
2021/08/27 05:44:22;;;;;;;6.60;3.10;;;;;;;;;;2671090;30;20373;-84
2021/08/27 05:46:48;;;;;;;9.93;2.70;;;;;;;;;;2665953;30;20390;-84
2021/08/27 05:49:14;;;;;;;10.97;3.10;;;;;;;;;;2663788;30;21066;-84
2021/08/27 05:51:43;;;;;;;4.20;2.57;;;;;;;;;;2661434;38;20979;-85
2021/08/27 05:54:09;;;;;;;7.43;3.30;;;;;;;;;;2674371;38;20904;-85
2021/08/27 05:56:35;;;;;;;6.00;2.73;;;;;;;;;;2662331;30;21672;-84
2021/08/27 05:59:02;;;;;;;4.40;3.10;;;;;;;;;;2670514;38;20370;-84
2021/08/27 06:01:29;;;;;;;7.03;3.47;;;;;;;;;;2669188;30;20367;-84
2021/08/27 06:09:04;;;;;;;4.50;2.90;;;;;;;;;;2811252;38;20353;-81
2021/08/27 06:14:06;;;;;;;7.53;2.90;;;;;;;;;;2782691;30;20358;-81
2021/08/27 06:19:09;;;;;;;7.30;3.17;;;;;;;;;;2684371;38;20395;-84
2021/08/27 06:21:37;;;;;;;10.00;3.50;;;;;;;;;;2678627;30;20367;-83
2021/08/27 06:24:03;;;;;;;9.77;2.80;;;;;;;;;;2671622;30;20350;-83
2021/08/27 06:26:29;;;;;;;7.53;3.27;;;;;;;;;;2681353;38;20355;-83
2021/08/27 06:28:56;;;;;;;6.97;2.73;;;;;;;;;;2688440;38;20350;-83
2021/08/27 06:31:22;;;;;;;9.70;3.30;;;;;;;;;;2676284;30;20342;-83
2021/08/27 08:45:17;;;;;;;5.63;2.80;;;;;;;;;;2653941;38;20376;-79
2021/08/27 08:47:45;;;;;;;5.77;3.03;;;;;;;;;;2648816;30;20366;-79
2021/08/27 08:50:12;;;;;;;6.00;3.47;;;;;;;;;;2654935;30;20989;-80
2021/08/27 08:52:38;;;;;;;4.70;3.80;;;;;;;;;;2638311;30;21963;-78
2021/08/27 08:55:04;;;;;;;4.47;2.50;;;;;;;;;;2756898;30;93477;-78
2021/08/27 08:57:30;;;;;;;4.53;2.23;;;;;;;;;;2629585;30;20404;-77
2021/08/27 08:59:56;;;;;;;6.67;2.50;;;;;;;;;;2627352;30;20359;-78
2021/08/27 09:02:22;;;;;;;2.80;2.30;;;;;;;;;;2626904;30;20370;-78
2021/08/27 09:04:49;;;;;;;4.30;2.97;;;;;;;;;;2625069;38;20375;-79
2021/08/27 09:07:15;;;;;;;3.40;2.60;;;;;;;;;;2626853;30;20367;-78
2021/08/27 09:09:43;;;;;;;7.97;3.60;;;;;;;;;;2629569;30;20359;-78
2021/08/27 09:12:35;;;;;;;3.27;2.97;;;;;;;;;;2627264;38;20418;-78
2021/08/27 09:15:09;;;;;;;7.43;2.83;;;;;;;;;;2628293;38;21244;-79
2021/08/27 09:17:43;;;;;;;7.83;3.20;;;;;;;;;;2626213;38;20402;-79
2021/08/27 09:20:10;;;;;;;4.10;2.73;;;;;;;;;;2626822;30;20373;-78
2021/08/27 09:23:04;;;;;;;5.13;2.30;;;;;;;;;;2625216;30;21507;-78
2021/08/27 09:25:32;;;;;;;4.33;2.33;;;;;;;;;;2626823;38;21405;-78
2021/08/27 09:28:12;;;;;;;10.50;2.50;;;;;;;;;;2626667;30;20379;-79
2021/08/27 09:30:58;;;;;;;5.70;3.13;;;;;;;;;;2629527;38;20386;-79
2021/08/27 09:33:30;;;;;;;5.63;2.23;;;;;;;;;;2626061;30;20438;-79
2021/08/27 09:36:03;;;;;;;7.40;3.90;;;;;;;;;;2627092;38;20426;-78
2021/08/27 09:38:31;;;;;;;4.13;2.50;;;;;;;;;;2626484;30;20897;-78
2021/08/27 09:41:01;;;;;;;16.90;3.70;;;;;;;;;;2626284;30;20419;-78
2021/08/27 09:43:27;;;;;;;7.20;3.80;;;;;;;;;;2626039;30;20412;-79
2021/08/27 09:45:53;;;;;;;4.63;3.20;;;;;;;;;;2625904;30;20371;-78
2021/08/27 09:48:19;;;;;;;5.40;2.73;;;;;;;;;;2625726;30;20866;-78
2021/08/27 09:50:48;;;;;;;7.50;3.40;;;;;;;;;;2627192;38;20366;-78
2021/08/27 09:53:15;;;;;;;6.10;3.47;;;;;;;;;;2626615;38;20398;-78
2021/08/27 09:56:01;;;;;;;3.20;2.90;;;;;;;;;;2626267;38;20397;-78
2021/08/27 09:58:27;;;;;;;5.83;2.77;;;;;;;;;;2626333;30;20546;-78
2021/08/27 10:01:05;;;;;;;6.10;2.87;;;;;;;;;;2627737;30;20379;-78
2021/08/27 10:03:31;;;;;;;4.57;2.50;;;;;;;;;;2625944;30;20406;-78
2021/08/27 10:05:57;;;;;;;2.20;1.60;;;;;;;;;;2625898;30;20916;-78
2021/08/27 10:08:23;;;;;;;5.00;2.40;;;;;;;;;;2624412;38;20375;-77
2021/08/27 10:10:54;;;;;;;4.30;2.10;;;;;;;;;;2623615;38;20422;-78
2021/08/27 10:13:20;;;;;;;4.37;2.07;;;;;;;;;;2626521;38;20425;-78
2021/08/27 10:15:46;;;;;;;6.10;2.80;;;;;;;;;;2625962;30;20379;-78
2021/08/27 10:18:12;;;;;;;5.20;2.57;;;;;;;;;;2626520;30;20426;-78
2021/08/27 10:20:40;;;;;;;4.37;2.90;;;;;;;;;;2623468;38;20442;-79
2021/08/27 10:23:07;;;;;;;5.47;2.70;;;;;;;;;;2625947;30;20391;-79
2021/08/27 10:25:34;;;;;;;4.57;2.80;;;;;;;;;;2625787;30;20441;-79
2021/08/27 10:28:00;;;;;;;2.60;2.40;;;;;;;;;;2625273;30;20381;-79
2021/08/27 10:30:44;;;;;;;3.80;2.00;;;;;;;;;;2626839;30;20450;-78
2021/08/27 10:33:10;;;;;;;4.70;3.17;;;;;;;;;;2624250;30;20363;-78
2021/08/27 10:35:39;;;;;;;6.30;2.63;;;;;;;;;;2627107;30;20370;-79
2021/08/27 10:38:05;;;;;;;11.27;2.50;;;;;;;;;;2625393;30;20430;-79
2021/08/27 10:40:41;;;;;;;4.60;2.33;;;;;;;;;;2626241;30;20379;-79
2021/08/27 10:43:07;;;;;;;2.40;2.13;;;;;;;;;;2624741;30;20397;-79
2021/08/27 10:45:33;;;;;;;5.57;2.40;;;;;;;;;;2625015;38;20375;-77
2021/08/27 10:48:09;;;;;;;4.37;2.40;;;;;;;;;;2626993;30;20402;-78
2021/08/27 10:50:36;;;;;;;3.50;2.10;;;;;;;;;;2625434;38;20378;-78
2021/08/27 10:53:17;;;;;;;3.40;1.90;;;;;;;;;;2625221;30;20391;-78
2021/08/27 10:55:43;;;;;;;3.07;2.63;;;;;;;;;;2626085;30;20343;-78
2021/08/27 10:58:13;;;;;;;2.80;2.60;;;;;;;;;;2625898;38;20383;-78
2021/08/27 11:00:41;;;;;;;2.80;2.60;;;;;;;;;;2626835;30;20466;-78
2021/08/27 11:03:08;;;;;;;3.20;2.90;;;;;;;;;;2625632;38;20355;-78
2021/08/27 11:05:38;;;;;;;7.67;3.30;;;;;;;;;;2627601;38;20917;-78
2021/08/27 11:08:06;;;;;;;3.27;2.63;;;;;;;;;;2625250;38;20898;-79
2021/08/27 11:10:33;;;;;;;3.20;3.00;;;;;;;;;;2627522;30;20494;-78
2021/08/27 11:13:00;;;;;;;2.93;2.63;;;;;;;;;;2626324;30;20915;-78
2021/08/27 11:15:29;;;;;;;1.90;1.80;;;;;;;;;;2625746;38;20379;-78
2021/08/27 11:18:20;;;;;;;2.30;2.07;;;;;;;;;;2625201;30;20477;-77
2021/08/27 11:20:47;;;;;;;5.20;1.70;;;;;;;;;;2626054;30;20893;-78
2021/08/27 11:23:13;;;;;;;7.30;2.93;;;;;;;;;;2625332;30;20399;-78
2021/08/27 11:25:43;;;;;;;5.40;2.17;;;;;;;;;;2626219;30;20378;-78
2021/08/27 11:28:13;;;;;;;3.93;2.00;;;;;;;;;;2625173;30;20391;-79
2021/08/27 11:30:40;;;;;;;5.50;2.00;;;;;;;;;;2627158;30;20407;-78
2021/08/27 11:33:26;;;;;;;2.40;1.57;;;;;;;;;;2627145;30;20900;-78
2021/08/27 11:35:56;;;;;;;3.80;2.10;;;;;;;;;;2625144;38;20865;-78
2021/08/27 11:38:22;;;;;;;6.20;2.10;;;;;;;;;;2625561;30;20386;-79
2021/08/27 11:40:48;;;;;;;4.00;2.67;;;;;;;;;;2627544;30;21214;-78
2021/08/27 11:43:14;;;;;;;3.20;2.63;;;;;;;;;;2625119;38;20371;-78
2021/08/27 11:45:41;;;;;;;2.50;1.73;;;;;;;;;;2624650;38;20375;-80
2021/08/27 11:48:08;;;;;;;4.00;2.13;;;;;;;;;;2625285;38;20600;-78
2021/08/27 11:50:42;;;;;;;5.20;1.80;;;;;;;;;;2626506;30;20355;-78
2021/08/27 11:53:09;;;;;;;5.47;2.37;;;;;;;;;;2624165;30;20422;-78
2021/08/27 11:55:42;;;;;;;5.20;1.93;;;;;;;;;;2626931;30;21560;-79
2021/08/27 11:58:08;;;;;;;4.80;2.57;;;;;;;;;;2626467;30;21236;-79
2021/08/27 12:00:36;;;;;;;5.40;2.00;;;;;;;;;;2625824;30;20404;-77
2021/08/27 12:03:02;;;;;;;5.20;2.80;;;;;;;;;;2626119;30;20358;-78
2021/08/27 12:05:29;;;;;;;5.00;1.87;;;;;;;;;;2625346;30;20407;-79
2021/08/27 12:08:09;;;;;;;3.50;2.43;;;;;;;;;;2627551;30;20873;-79
2021/08/27 12:10:39;;;;;;;2.90;1.53;;;;;;;;;;2625886;30;20393;-79
2021/08/27 12:13:06;;;;;;;3.23;1.90;;;;;;;;;;2626329;30;20375;-78
2021/08/27 12:15:40;;;;;;;4.17;1.90;;;;;;;;;;2628067;30;20386;-77
2021/08/27 12:18:16;;;;;;;7.00;2.53;;;;;;;;;;2625224;38;20370;-77
2021/08/27 12:20:44;;;;;;;2.60;1.90;;;;;;;;;;2626171;30;20386;-78
2021/08/27 12:23:16;;;;;;;1.83;1.60;;;;;;;;;;2624875;38;20788;-78
2021/08/27 12:25:46;;;;;;;3.67;1.70;;;;;;;;;;2624820;30;21253;-79
2021/08/27 12:28:16;;;;;;;3.37;1.97;;;;;;;;;;2626832;30;20371;-78
2021/08/27 12:30:46;;;;;;;3.50;2.23;;;;;;;;;;2625134;30;20541;-78
2021/08/27 12:33:12;;;;;;;3.40;2.00;;;;;;;;;;2626519;30;20359;-79
2021/08/27 12:35:38;;;;;;;3.30;1.93;;;;;;;;;;2626793;30;20430;-79
2021/08/27 12:38:05;;;;;;;4.60;2.00;;;;;;;;;;2627565;30;20383;-78
2021/08/27 12:40:32;;;;;;;3.00;1.73;;;;;;;;;;2626429;30;20363;-78
2021/08/27 12:43:06;;;;;;;4.13;2.00;;;;;;;;;;2625128;38;20371;-79
2021/08/27 12:45:41;;;;;;;3.53;2.90;;;;;;;;;;2627922;30;20411;-79
2021/08/27 12:48:08;;;;;;;2.70;2.50;;;;;;;;;;2626633;30;20879;-78
2021/08/27 12:51:09;;;;;;;4.57;2.53;;;;;;;;;;2625811;38;20927;-78
2021/08/27 12:53:36;;;;;;;2.50;2.20;;;;;;;;;;2625133;30;20770;-78
2021/08/27 12:56:06;;;;;;;2.87;2.30;;;;;;;;;;2625677;30;20363;-77
2021/08/27 12:58:33;;;;;;;2.87;2.27;;;;;;;;;;2624783;38;20371;-78
2021/08/27 13:01:12;;;;;;;2.10;1.73;;;;;;;;;;2625416;30;20898;-77
2021/08/27 13:03:41;;;;;;;3.43;1.93;;;;;;;;;;2626130;30;20382;-78
2021/08/27 13:06:27;;;;;;;3.77;1.70;;;;;;;;;;2626668;30;20374;-78
2021/08/27 13:08:57;;;;;;;2.40;1.97;;;;;;;;;;2626479;30;20398;-79
2021/08/27 13:11:23;;;;;;;5.20;2.90;;;;;;;;;;2625083;30;20401;-79
2021/08/27 13:13:50;;;;;;;2.60;2.20;;;;;;;;;;2624808;30;20362;-79
2021/08/27 13:16:17;;;;;;;3.30;3.00;;;;;;;;;;2624620;30;20402;-78
2021/08/27 13:18:43;;;;;;;4.63;4.23;;;;;;;;;;2625153;30;20386;-79
2021/08/27 13:21:09;;;;;;;3.83;3.03;;;;;;;;;;2624912;38;20351;-79
2021/08/27 13:23:35;;;;;;;10.17;3.40;;;;;;;;;;2625589;30;20401;-79
2021/08/27 13:26:03;;;;;;;2.87;2.57;;;;;;;;;;2625688;30;20379;-79
2021/08/27 13:28:31;;;;;;;3.83;3.30;;;;;;;;;;2625408;30;20915;-78
2021/08/27 13:30:57;;;;;;;4.80;3.57;;;;;;;;;;2626973;30;20795;-79
2021/08/27 13:33:24;;;;;;;3.70;2.97;;;;;;;;;;2624214;38;20367;-77
2021/08/27 13:35:50;;;;;;;5.13;3.73;;;;;;;;;;2625324;38;20370;-78
2021/08/27 13:38:16;;;;;;;3.80;2.40;;;;;;;;;;2625076;30;20815;-78
2021/08/27 13:40:42;;;;;;;3.67;2.93;;;;;;;;;;2626116;30;20389;-79
2021/08/27 13:43:08;;;;;;;3.37;3.07;;;;;;;;;;2627052;30;20855;-79
2021/08/27 13:45:34;;;;;;;3.60;2.27;;;;;;;;;;2624001;30;20382;-79
2021/08/27 13:48:01;;;;;;;5.07;2.20;;;;;;;;;;2626634;30;20952;-79
2021/08/27 13:50:27;;;;;;;3.90;2.10;;;;;;;;;;2626123;38;20338;-78
2021/08/27 13:52:53;;;;;;;1.90;1.73;;;;;;;;;;2624020;30;21581;-79
2021/08/27 13:55:20;;;;;;;4.87;2.33;;;;;;;;;;2625044;30;20367;-79
2021/08/27 13:57:47;;;;;;;10.70;2.53;;;;;;;;;;2625199;38;20386;-79
2021/08/27 14:00:14;;;;;;;4.63;2.40;;;;;;;;;;2625336;30;20386;-80
2021/08/27 14:02:40;;;;;;;8.27;2.67;;;;;;;;;;2627086;30;20429;-80
2021/08/27 14:05:07;;;;;;;7.87;2.97;;;;;;;;;;2625495;38;20411;-80
2021/08/27 14:07:33;;;;;;;4.17;2.30;;;;;;;;;;2624804;38;20373;-79
2021/08/27 14:10:00;;;;;;;3.90;2.40;;;;;;;;;;2626758;30;21218;-79
2021/08/27 14:12:26;;;;;;;4.27;2.27;;;;;;;;;;2629567;38;20381;-79
2021/08/27 14:14:52;;;;;;;3.70;2.37;;;;;;;;;;2630045;38;20407;-80
2021/08/27 14:17:18;;;;;;;3.23;1.93;;;;;;;;;;2625691;38;20371;-80
2021/08/27 14:19:44;;;;;;;11.23;3.10;;;;;;;;;;2633565;30;20365;-80
2021/08/27 14:22:10;;;;;;;6.23;2.80;;;;;;;;;;2628364;38;20351;-79
2021/08/27 14:24:36;;;;;;;3.50;2.87;;;;;;;;;;2635233;30;20359;-79
2021/08/27 14:27:02;;;;;;;7.03;2.50;;;;;;;;;;2631835;30;20380;-80
2021/08/27 14:29:28;;;;;;;5.40;3.57;;;;;;;;;;2633592;38;20759;-79
2021/08/27 14:31:59;;;;;;;3.00;2.17;;;;;;;;;;2626058;38;20383;-79
2021/08/27 14:34:25;;;;;;;7.07;2.40;;;;;;;;;;2629679;30;20848;-81
2021/08/27 14:36:51;;;;;;;6.77;2.70;;;;;;;;;;2633746;30;20816;-81
2021/08/27 14:39:18;;;;;;;7.00;2.07;;;;;;;;;;2630857;30;20695;-80
2021/08/27 14:41:44;;;;;;;6.87;3.10;;;;;;;;;;2629759;38;20398;-80
2021/08/27 14:44:10;;;;;;;7.20;3.00;;;;;;;;;;2635384;30;20348;-81
2021/08/27 14:46:36;;;;;;;6.43;2.63;;;;;;;;;;2626702;30;20378;-80
2021/08/27 14:49:03;;;;;;;2.40;2.20;;;;;;;;;;2629734;38;20361;-80
2021/08/27 14:51:29;;;;;;;6.03;2.40;;;;;;;;;;2629452;30;20391;-80
2021/08/27 14:53:55;;;;;;;8.10;2.50;;;;;;;;;;2629339;30;20415;-80
2021/08/27 14:56:21;;;;;;;7.87;2.20;;;;;;;;;;2632512;30;20378;-80
2021/08/27 14:58:47;;;;;;;3.10;2.00;;;;;;;;;;2630548;30;20414;-80
2021/08/27 15:01:13;;;;;;;5.43;1.70;;;;;;;;;;2627820;30;20394;-79
2021/08/27 15:03:39;;;;;;;3.80;1.87;;;;;;;;;;2624593;38;20910;-79
2021/08/27 15:06:05;;;;;;;3.27;1.50;;;;;;;;;;2624666;38;20395;-79
2021/08/27 15:08:31;;;;;;;2.60;1.70;;;;;;;;;;2625631;30;20426;-79
2021/08/27 15:10:57;;;;;;;4.53;1.53;;;;;;;;;;2626721;30;21211;-79
2021/08/27 15:13:24;;;;;;;2.40;1.30;;;;;;;;;;2625775;30;21265;-79
2021/08/27 15:15:50;;;;;;;2.30;1.50;;;;;;;;;;2625294;38;21662;-79
2021/08/27 15:18:16;;;;;;;2.90;1.67;;;;;;;;;;2627280;30;20911;-79
2021/08/27 15:20:42;;;;;;;2.70;1.30;;;;;;;;;;2628385;30;20799;-79
2021/08/27 15:23:09;;;;;;;3.00;1.93;;;;;;;;;;2625836;30;20382;-79
2021/08/27 15:25:35;;;;;;;2.13;1.30;;;;;;;;;;2628198;30;20367;-79
2021/08/27 15:28:01;;;;;;;1.80;1.57;;;;;;;;;;2624324;30;20403;-79
2021/08/27 15:30:28;;;;;;;3.30;1.60;;;;;;;;;;2625244;30;20363;-78
2021/08/27 15:32:54;;;;;;;4.60;1.93;;;;;;;;;;2626054;30;20399;-78
2021/08/27 15:35:20;;;;;;;2.30;1.63;;;;;;;;;;2624913;38;20402;-78
2021/08/27 15:37:46;;;;;;;4.57;1.67;;;;;;;;;;2626064;30;20360;-78
2021/08/27 15:40:12;;;;;;;6.13;1.60;;;;;;;;;;2625202;38;20374;-78
2021/08/27 15:42:39;;;;;;;2.53;1.13;;;;;;;;;;2625122;30;20455;-78
2021/08/27 15:45:05;;;;;;;2.60;1.27;;;;;;;;;;2624239;38;20434;-78
2021/08/27 15:47:32;;;;;;;5.80;1.60;;;;;;;;;;2625401;30;20371;-79
2021/08/27 15:49:58;;;;;;;1.80;1.70;;;;;;;;;;2625049;38;20890;-79
2021/08/27 15:52:24;;;;;;;6.63;3.40;;;;;;;;;;2628154;30;20375;-78
2021/08/27 15:54:50;;;;;;;3.10;2.10;;;;;;;;;;2627040;30;20371;-80
2021/08/27 15:57:19;;;;;;;3.43;1.93;;;;;;;;;;2631257;38;20419;-83
2021/08/27 15:59:46;;;;;;;6.40;2.10;;;;;;;;;;2630481;30;20375;-82
2021/08/27 16:02:12;;;;;;;3.23;1.63;;;;;;;;;;2634848;38;21388;-81
2021/08/27 16:04:38;;;;;;;6.90;1.70;;;;;;;;;;2634115;30;20390;-82
2021/08/27 16:07:04;;;;;;;4.40;1.73;;;;;;;;;;2632577;30;20346;-81
2021/08/27 16:09:30;;;;;;;9.13;2.13;;;;;;;;;;2629901;38;20408;-81
2021/08/27 16:11:56;;;;;;;5.53;2.00;;;;;;;;;;2628775;38;20414;-81
2021/08/27 16:14:23;;;;;;;4.60;2.80;;;;;;;;;;2629193;31;20462;-81
2021/08/27 16:16:49;;;;;;;2.90;2.23;;;;;;;;;;2629330;30;21248;-81
2021/08/27 16:19:15;;;;;;;6.00;3.10;;;;;;;;;;2628312;30;20377;-81
2021/08/27 16:21:41;;;;;;;3.80;3.43;;;;;;;;;;2628423;30;21181;-80
2021/08/27 16:24:07;;;;;;;6.80;2.83;;;;;;;;;;2635637;30;20385;-81
2021/08/27 16:26:37;;;;;;;4.73;2.47;;;;;;;;;;2642577;30;20845;-81
2021/08/27 16:29:05;;;;;;;3.63;2.53;;;;;;;;;;2631990;30;21038;-81
2021/08/27 16:31:32;;;;;;;5.37;2.50;;;;;;;;;;2632139;30;20908;-80
2021/08/27 16:33:59;;;;;;;3.17;1.87;;;;;;;;;;2633591;30;20430;-80
2021/08/27 16:36:26;;;;;;;6.30;2.83;;;;;;;;;;2627993;30;20397;-80
2021/08/27 16:38:52;;;;;;;4.43;2.70;;;;;;;;;;2629140;38;20407;-81
2021/08/27 16:41:18;;;;;;;5.30;2.77;;;;;;;;;;2630999;30;20401;-81
2021/08/27 16:43:44;;;;;;;3.57;3.13;;;;;;;;;;2629332;38;20359;-81
2021/08/27 16:46:10;;;;;;;5.13;3.40;;;;;;;;;;2630862;30;20368;-80
2021/08/27 16:48:36;;;;;;;8.17;3.80;;;;;;;;;;2631337;30;20363;-80
2021/08/27 16:51:03;;;;;;;8.37;3.00;;;;;;;;;;2628345;30;20402;-81
2021/08/27 16:53:29;;;;;;;3.90;2.40;;;;;;;;;;2626385;38;21255;-80
2021/08/27 16:55:55;;;;;;;7.13;2.70;;;;;;;;;;2626282;38;20504;-80
2021/08/27 16:58:21;;;;;;;5.97;2.93;;;;;;;;;;2627579;38;20370;-79
2021/08/27 17:00:47;;;;;;;4.03;2.40;;;;;;;;;;2629974;30;21043;-80
2021/08/27 17:03:13;;;;;;;6.17;3.00;;;;;;;;;;2629343;30;20355;-80
2021/08/27 17:05:39;;;;;;;3.40;2.73;;;;;;;;;;2628582;30;20358;-80
2021/08/27 17:08:05;;;;;;;3.63;3.07;;;;;;;;;;2625613;38;20368;-79
2021/08/27 17:10:31;;;;;;;7.23;4.07;;;;;;;;;;2628761;30;20791;-79
2021/08/27 17:12:57;;;;;;;4.10;3.27;;;;;;;;;;2626672;30;20403;-79
2021/08/27 17:15:23;;;;;;;6.63;3.00;;;;;;;;;;2628558;30;20389;-79
2021/08/27 17:17:49;;;;;;;7.23;3.57;;;;;;;;;;2628384;38;20370;-78
2021/08/27 17:20:15;;;;;;;13.37;3.17;;;;;;;;;;2627678;30;20355;-79
2021/08/27 17:22:42;;;;;;;9.27;4.80;;;;;;;;;;2627466;38;20355;-79
2021/08/27 17:25:09;;;;;;;9.57;4.97;;;;;;;;;;2626927;30;20378;-79
2021/08/27 17:27:35;;;;;;;7.60;5.77;;;;;;;;;;2627068;38;20859;-79
2021/08/27 17:30:01;;;;;;;6.30;4.90;;;;;;;;;;2628978;30;20389;-79
2021/08/27 17:32:27;;;;;;;6.60;5.40;;;;;;;;;;2625951;30;21582;-79
2021/08/27 17:34:53;;;;;;;5.53;5.03;;;;;;;;;;2625882;30;20377;-79
2021/08/27 17:37:20;;;;;;;4.33;3.93;;;;;;;;;;2625515;30;20381;-80
2021/08/27 17:39:46;;;;;;;3.53;3.23;;;;;;;;;;2625273;38;20413;-79
2021/08/27 17:42:12;;;;;;;5.20;2.70;;;;;;;;;;2625611;38;20478;-79
2021/08/27 17:44:38;;;;;;;4.93;3.07;;;;;;;;;;2625307;30;21297;-79
2021/08/27 17:47:04;;;;;;;5.17;3.00;;;;;;;;;;2628796;30;20441;-79
2021/08/27 17:49:30;;;;;;;4.80;2.70;;;;;;;;;;2625878;30;20956;-79
2021/08/27 17:51:56;;;;;;;3.20;2.50;;;;;;;;;;2624139;30;20371;-78
2021/08/27 17:54:24;;;;;;;8.57;3.63;;;;;;;;;;2628571;30;20917;-80
2021/08/27 17:56:50;;;;;;;3.33;2.33;;;;;;;;;;2625258;38;20399;-79
2021/08/27 17:59:16;;;;;;;2.60;2.37;;;;;;;;;;2626357;30;20379;-79
2021/08/27 18:01:42;;;;;;;5.90;3.50;;;;;;;;;;2626068;30;20404;-79
2021/08/27 18:04:09;;;;;;;5.73;2.60;;;;;;;;;;2624220;30;20363;-80
2021/08/27 18:06:38;;;;;;;13.27;2.77;;;;;;;;;;2625994;30;20397;-79
2021/08/27 18:09:04;;;;;;;3.80;2.40;;;;;;;;;;2625948;30;20935;-79
2021/08/27 18:11:31;;;;;;;6.20;3.10;;;;;;;;;;2625779;38;20495;-79
2021/08/27 18:13:57;;;;;;;7.50;2.60;;;;;;;;;;2626620;30;20403;-79
2021/08/27 18:16:23;;;;;;;5.50;2.50;;;;;;;;;;2624311;38;20374;-79
2021/08/27 18:18:49;;;;;;;3.47;2.70;;;;;;;;;;2623167;30;20387;-79
2021/08/27 18:21:16;;;;;;;3.97;2.63;;;;;;;;;;2627131;38;20430;-79
2021/08/27 18:23:43;;;;;;;5.70;2.90;;;;;;;;;;2627554;30;20909;-80
2021/08/27 18:26:09;;;;;;;7.30;5.60;;;;;;;;;;2626352;30;20367;-80
2021/08/27 18:28:35;;;;;;;4.10;3.70;;;;;;;;;;2627257;30;20385;-79
2021/08/27 18:31:01;;;;;;;8.33;7.53;;;;;;;;;;2626841;30;20859;-79
2021/08/27 18:33:27;;;;;;;36.93;26.83;;;;;;;;;;2631070;30;20359;-79
2021/08/27 18:35:54;;;;;;;31.07;20.90;;;;;;;;;;2628197;30;20766;-79
2021/08/27 18:38:20;;;;;;;18.33;13.23;;;;;;;;;;2624972;38;20402;-79
2021/08/27 18:40:47;;;;;;;29.17;18.27;;;;;;;;;;2626142;30;20402;-79
2021/08/27 18:43:14;;;;;;;19.00;14.13;;;;;;;;;;2625476;38;20383;-79
2021/08/27 18:45:40;;;;;;;11.63;5.87;;;;;;;;;;2624376;30;21451;-79
2021/08/27 18:48:06;;;;;;;5.77;5.20;;;;;;;;;;2627357;30;20384;-80
2021/08/27 18:50:33;;;;;;;12.07;6.50;;;;;;;;;;2629052;30;20367;-80
2021/08/27 18:52:59;;;;;;;14.47;6.50;;;;;;;;;;2624388;30;20387;-79
2021/08/27 18:55:25;;;;;;;8.53;7.23;;;;;;;;;;2625309;38;20377;-79
2021/08/27 18:57:51;;;;;;;6.10;5.10;;;;;;;;;;2626247;30;20881;-79
2021/08/27 19:00:17;;;;;;;10.80;5.30;;;;;;;;;;2627772;30;20928;-78
2021/08/27 19:02:43;;;;;;;12.90;3.30;;;;;;;;;;2625477;30;20355;-79
2021/08/27 19:05:11;;;;;;;6.57;3.50;;;;;;;;;;2625758;38;20367;-79
2021/08/27 19:07:37;;;;;;;4.30;3.27;;;;;;;;;;2625660;38;20410;-78
2021/08/27 19:10:03;;;;;;;5.77;4.50;;;;;;;;;;2625933;30;20367;-79
2021/08/27 19:12:30;;;;;;;9.50;4.57;;;;;;;;;;2626782;30;20377;-79
2021/08/27 19:14:56;;;;;;;10.73;5.20;;;;;;;;;;2629007;30;21278;-79
2021/08/27 19:17:22;;;;;;;6.70;4.20;;;;;;;;;;2626067;30;20925;-79
2021/08/27 19:19:48;;;;;;;6.13;3.60;;;;;;;;;;2627503;38;20367;-80
2021/08/27 19:22:14;;;;;;;7.60;4.53;;;;;;;;;;2626982;30;20373;-80
2021/08/27 19:24:40;;;;;;;5.30;3.70;;;;;;;;;;2625154;38;20387;-79
2021/08/27 19:27:06;;;;;;;5.63;4.33;;;;;;;;;;2628796;30;20365;-79
2021/08/27 19:29:32;;;;;;;7.53;5.63;;;;;;;;;;2627047;30;20351;-78
2021/08/27 19:31:58;;;;;;;8.40;5.00;;;;;;;;;;2627441;30;20342;-79
2021/08/27 19:34:24;;;;;;;9.40;4.60;;;;;;;;;;2626968;38;20382;-79
2021/08/27 19:36:50;;;;;;;4.67;3.90;;;;;;;;;;2625695;30;20830;-79
2021/08/27 19:39:16;;;;;;;4.97;3.60;;;;;;;;;;2627652;30;20400;-79
2021/08/27 19:41:42;;;;;;;8.77;4.83;;;;;;;;;;2624843;38;20382;-80
2021/08/27 19:44:08;;;;;;;8.40;4.30;;;;;;;;;;2626768;38;20622;-80
2021/08/27 19:46:34;;;;;;;9.27;5.03;;;;;;;;;;2626391;30;20388;-81
2021/08/27 19:49:00;;;;;;;6.57;4.20;;;;;;;;;;2626767;30;20401;-79
2021/08/27 19:51:26;;;;;;;6.13;5.53;;;;;;;;;;2625857;46;21610;-78
2021/08/27 19:53:52;;;;;;;8.50;5.47;;;;;;;;;;2625263;30;20491;-79
2021/08/27 19:56:18;;;;;;;8.07;5.47;;;;;;;;;;2626625;30;20378;-78
2021/08/27 19:58:48;;;;;;;11.40;4.20;;;;;;;;;;2625853;38;20539;-79
2021/08/27 20:01:14;;;;;;;7.47;4.43;;;;;;;;;;2627068;30;20413;-79
2021/08/27 20:03:41;;;;;;;5.33;3.40;;;;;;;;;;2629567;30;20924;-78
2021/08/27 20:06:07;;;;;;;5.00;3.30;;;;;;;;;;2624026;38;20544;-79
2021/08/27 20:08:33;;;;;;;6.07;3.67;;;;;;;;;;2625527;30;21162;-79
2021/08/27 20:10:59;;;;;;;9.67;3.60;;;;;;;;;;2626333;38;20541;-79
2021/08/27 20:13:25;;;;;;;4.57;3.13;;;;;;;;;;2624596;30;20366;-80
2021/08/27 20:15:51;;;;;;;4.53;3.50;;;;;;;;;;2626547;38;20373;-79
2021/08/27 20:18:17;;;;;;;6.10;3.20;;;;;;;;;;2627479;30;20850;-78
2021/08/27 20:20:44;;;;;;;7.30;3.77;;;;;;;;;;2625196;30;20960;-79
2021/08/27 20:23:10;;;;;;;3.87;3.40;;;;;;;;;;2624951;38;20444;-79
2021/08/27 20:25:36;;;;;;;7.27;4.20;;;;;;;;;;2627594;30;20917;-79
2021/08/27 20:28:02;;;;;;;13.10;3.40;;;;;;;;;;2626575;30;20382;-79
2021/08/27 20:30:29;;;;;;;6.20;2.93;;;;;;;;;;2627016;30;20375;-80
2021/08/27 20:32:55;;;;;;;3.87;2.60;;;;;;;;;;2625470;30;21514;-80
2021/08/27 20:35:21;;;;;;;7.83;3.10;;;;;;;;;;2625147;30;20482;-79
2021/08/27 20:37:47;;;;;;;9.70;4.50;;;;;;;;;;2627769;30;20382;-79